createdAt,value
2022-12-18T00:02:53.217Z,15.93
2022-12-18T00:07:55.767Z,19.48
2022-12-18T00:12:58.226Z,13.98
2022-12-18T00:18:00.682Z,13.10
2022-12-18T00:23:03.352Z,14.77
2022-12-18T00:28:06.087Z,16.35
2022-12-18T00:33:09.396Z,16.90
2022-12-18T00:38:12.038Z,17.65
2022-12-18T00:43:14.702Z,20.20
2022-12-18T00:48:17.360Z,18.65
2022-12-18T00:53:19.910Z,19.15
2022-12-18T00:58:22.552Z,21.23
2022-12-18T01:03:25.279Z,20.25
2022-12-18T01:08:28.158Z,21.80
2022-12-18T01:13:30.969Z,21.02
2022-12-18T01:18:33.729Z,21.45
2022-12-18T01:23:36.849Z,19.63
2022-12-18T01:28:39.981Z,19.65
2022-12-18T01:33:44.548Z,19.65
2022-12-18T01:38:47.684Z,19.55
2022-12-18T01:43:55.183Z,17.98
2022-12-18T01:49:00.844Z,20.15
2022-12-18T01:54:03.661Z,17.25
2022-12-18T01:59:07.594Z,17.90
2022-12-18T02:04:23.927Z,15.45
2022-12-18T02:09:31.122Z,15.60
2022-12-18T02:14:36.914Z,16.38
2022-12-18T02:19:54.292Z,16.67
2022-12-18T02:25:12.000Z,16.35
2022-12-18T02:30:15.314Z,15.30
2022-12-18T02:35:21.697Z,16.05
2022-12-18T02:40:28.667Z,15.23
2022-12-18T02:45:32.275Z,14.32
2022-12-18T02:50:46.443Z,13.55
2022-12-18T02:55:58.162Z,14.77
2022-12-18T03:01:08.527Z,13.98
2022-12-18T03:06:31.632Z,14.07
2022-12-18T03:11:56.245Z,13.80
2022-12-18T03:17:00.722Z,14.65
2022-12-18T03:22:04.514Z,14.07
2022-12-18T03:27:18.758Z,14.88
2022-12-18T03:32:27.101Z,14.75
2022-12-18T03:37:32.667Z,14.75
2022-12-18T03:42:45.091Z,14.95
2022-12-18T03:47:53.991Z,14.20
2022-12-18T03:53:01.821Z,14.30
2022-12-18T03:58:07.292Z,15.05
2022-12-18T04:03:26.626Z,14.32
2022-12-18T04:08:30.349Z,15.05
2022-12-18T04:13:39.791Z,14.25
2022-12-18T04:18:47.779Z,35.22
2022-12-18T04:23:51.553Z,14.82
2022-12-18T04:28:57.224Z,15.27
2022-12-18T04:34:00.250Z,14.70
2022-12-18T04:39:04.282Z,14.63
2022-12-18T04:44:08.250Z,14.13
2022-12-18T04:49:12.069Z,14.82
2022-12-18T04:54:14.802Z,13.57
2022-12-18T04:59:17.529Z,13.23
2022-12-18T05:04:20.429Z,20.40
2022-12-18T05:09:24.492Z,15.70
2022-12-18T05:14:28.634Z,13.85
2022-12-18T05:19:31.403Z,16.70
2022-12-18T05:24:34.012Z,13.57
2022-12-18T05:29:36.800Z,17.35
2022-12-18T05:34:39.509Z,16.15
2022-12-18T05:39:42.293Z,17.58
2022-12-18T05:44:45.271Z,17.10
2022-12-18T05:49:47.742Z,14.93
2022-12-18T05:54:50.565Z,15.48
2022-12-18T05:59:53.116Z,14.70
2022-12-18T06:04:56.091Z,13.23
2022-12-18T06:09:58.922Z,13.25
2022-12-18T06:15:01.714Z,13.63
2022-12-18T06:20:04.611Z,13.68
2022-12-18T06:25:07.595Z,13.60
2022-12-18T06:30:11.137Z,15.32
2022-12-18T06:35:13.930Z,17.63
2022-12-18T06:40:16.769Z,14.95
2022-12-18T06:45:19.523Z,14.32
2022-12-18T06:50:22.410Z,17.08
2022-12-18T06:55:25.328Z,18.02
2022-12-18T07:00:28.220Z,14.77
2022-12-18T07:05:31.074Z,14.43
2022-12-18T07:10:33.893Z,14.15
2022-12-18T07:15:36.699Z,14.00
2022-12-18T07:20:39.439Z,14.60
2022-12-18T07:25:42.337Z,12.85
2022-12-18T07:30:45.143Z,14.75
2022-12-18T07:35:48.025Z,13.10
2022-12-18T07:40:50.830Z,13.30
2022-12-18T07:45:53.691Z,12.68
2022-12-18T07:51:05.287Z,13.70
2022-12-18T08:01:32.633Z,13.15
2022-12-18T08:06:35.244Z,14.32
2022-12-18T08:11:37.923Z,14.18
2022-12-18T08:16:41.235Z,13.30
2022-12-18T08:21:44.252Z,14.27
2022-12-18T08:27:06.690Z,14.35
2022-12-18T08:32:10.809Z,14.43
2022-12-18T08:37:13.785Z,13.52
2022-12-18T08:42:35.337Z,20.45
2022-12-18T08:47:37.956Z,14.38
2022-12-18T08:52:40.662Z,15.25
2022-12-18T08:57:43.495Z,13.80
2022-12-18T09:02:46.872Z,13.80
2022-12-18T09:07:49.607Z,14.57
2022-12-18T09:12:52.425Z,15.13
2022-12-18T09:17:55.051Z,14.18
2022-12-18T09:22:57.736Z,14.38
2022-12-18T09:28:01.414Z,14.82
2022-12-18T09:33:04.569Z,15.27
2022-12-18T09:38:10.032Z,15.52
2022-12-18T09:43:18.989Z,16.08
2022-12-18T09:48:36.862Z,14.95
2022-12-18T09:53:40.560Z,16.48
2022-12-18T09:58:46.424Z,16.45
2022-12-18T10:03:53.286Z,16.30
2022-12-18T10:09:16.089Z,15.82
2022-12-18T10:14:24.632Z,15.73
2022-12-18T10:19:50.560Z,15.10
2022-12-18T10:24:56.813Z,16.98
2022-12-18T10:30:02.483Z,15.15
2022-12-18T10:35:05.342Z,13.98
2022-12-18T10:40:08.364Z,13.75
2022-12-18T10:45:13.138Z,14.65
2022-12-18T10:51:08.617Z,15.23
2022-12-18T10:55:57.644Z,13.45
2022-12-18T11:01:21.229Z,13.65
2022-12-18T11:06:25.660Z,12.75
2022-12-18T11:11:28.739Z,13.70
2022-12-18T11:16:34.814Z,12.90
2022-12-18T11:21:41.026Z,13.43
2022-12-18T11:26:44.555Z,12.18
2022-12-18T11:31:47.671Z,14.23
2022-12-18T11:36:52.285Z,12.75
2022-12-18T11:42:12.853Z,13.45
2022-12-18T11:47:34.634Z,13.07
2022-12-18T11:52:41.711Z,12.23
2022-12-18T11:57:44.416Z,12.43
2022-12-18T12:03:05.938Z,12.15
2022-12-18T12:08:44.350Z,11.48
2022-12-18T12:13:53.030Z,10.10
2022-12-18T12:19:01.816Z,10.15
2022-12-18T12:24:10.761Z,12.05
2022-12-18T12:29:19.394Z,11.13
2022-12-18T12:34:27.969Z,11.07
2022-12-18T12:39:41.872Z,10.88
2022-12-18T12:44:52.717Z,11.25
2022-12-18T12:49:59.658Z,11.90
2022-12-18T12:55:08.040Z,11.73
2022-12-18T13:00:16.601Z,11.23
2022-12-18T13:05:23.332Z,11.75
2022-12-18T13:10:28.770Z,20.45
2022-12-18T13:15:36.718Z,21.13
2022-12-18T13:20:53.181Z,20.33
2022-12-18T13:26:01.157Z,13.75
2022-12-18T13:31:04.244Z,14.60
2022-12-18T13:36:25.540Z,14.48
2022-12-18T13:41:29.577Z,16.10
2022-12-18T13:46:48.123Z,15.20
2022-12-18T13:51:52.101Z,14.68
2022-12-18T13:56:55.224Z,14.50
2022-12-18T14:01:59.445Z,13.45
2022-12-18T14:07:15.757Z,12.30
2022-12-18T14:12:41.976Z,12.82
2022-12-18T14:17:44.793Z,14.35
2022-12-18T14:22:48.572Z,13.60
2022-12-18T14:27:53.957Z,12.63
2022-12-18T14:33:26.090Z,14.55
2022-12-18T14:38:39.251Z,15.45
2022-12-18T14:43:44.367Z,16.58
2022-12-18T14:48:48.822Z,15.00
2022-12-18T14:53:56.620Z,12.10
2022-12-18T14:59:10.390Z,12.55
2022-12-18T15:04:29.689Z,12.50
2022-12-18T15:09:32.279Z,12.10
2022-12-18T15:14:36.578Z,11.25
2022-12-18T15:19:42.760Z,11.30
2022-12-18T15:24:45.396Z,11.98
2022-12-18T15:30:01.131Z,11.50
2022-12-18T15:35:12.424Z,12.02
2022-12-18T15:40:19.981Z,13.02
2022-12-18T15:45:22.768Z,12.48
2022-12-18T15:50:27.022Z,12.25
2022-12-18T15:55:49.863Z,14.23
2022-12-18T16:00:52.933Z,14.20
2022-12-18T16:05:55.750Z,13.48
2022-12-18T16:10:59.538Z,13.70
2022-12-18T16:16:02.256Z,13.57
2022-12-18T16:21:04.915Z,14.27
2022-12-18T16:26:07.983Z,14.15
2022-12-18T16:31:10.708Z,14.85
2022-12-18T16:36:13.255Z,14.50
2022-12-18T16:41:34.870Z,15.07
2022-12-18T16:46:38.197Z,13.75
2022-12-18T16:51:40.767Z,13.73
2022-12-18T16:56:43.621Z,12.88
2022-12-18T17:01:46.159Z,14.63
2022-12-18T17:06:53.588Z,13.93
2022-12-18T17:11:56.281Z,13.57
2022-12-18T17:17:20.384Z,15.02
2022-12-18T17:22:25.834Z,15.02
2022-12-18T17:27:28.643Z,15.75
2022-12-18T17:32:31.376Z,15.35
2022-12-18T17:37:33.992Z,15.43
2022-12-18T17:42:36.804Z,15.55
2022-12-18T17:47:39.473Z,16.65
2022-12-18T17:52:42.287Z,16.58
2022-12-18T17:57:44.836Z,16.00
2022-12-18T18:02:47.812Z,15.65
2022-12-18T18:07:50.760Z,17.33
2022-12-18T18:13:13.993Z,17.13
2022-12-18T18:18:16.686Z,16.83
2022-12-18T18:23:20.110Z,17.38
2022-12-18T18:28:24.416Z,17.85
2022-12-18T18:33:27.317Z,18.30
2022-12-18T18:38:30.777Z,18.90
2022-12-18T18:43:33.975Z,18.98
2022-12-18T18:48:37.499Z,17.95
2022-12-18T18:53:42.787Z,18.55
2022-12-18T18:58:45.916Z,17.50
2022-12-18T19:03:49.269Z,18.85
2022-12-18T19:08:53.161Z,17.13
2022-12-18T19:13:56.675Z,18.30
2022-12-18T19:19:02.254Z,19.13
2022-12-18T19:24:09.295Z,18.75
2022-12-18T19:29:15.035Z,18.80
2022-12-18T19:34:17.832Z,18.50
2022-12-18T19:39:20.863Z,18.35
2022-12-18T19:44:23.614Z,17.15
2022-12-18T19:49:26.640Z,17.95
2022-12-18T19:54:31.253Z,18.15
2022-12-18T19:59:33.811Z,18.23
2022-12-18T20:04:36.747Z,18.20
2022-12-18T20:09:39.578Z,19.65
2022-12-18T20:14:42.464Z,16.88
2022-12-18T20:19:45.700Z,17.55
2022-12-18T20:24:49.582Z,18.90
2022-12-18T20:29:53.341Z,17.60
2022-12-18T20:34:56.956Z,17.60
2022-12-18T20:40:00.867Z,18.00
2022-12-18T20:45:06.625Z,17.52
2022-12-18T20:50:09.640Z,17.55
2022-12-18T20:55:12.675Z,18.38
2022-12-18T21:00:15.605Z,18.10
2022-12-18T21:05:23.308Z,17.65
2022-12-18T21:10:25.824Z,18.15
2022-12-18T21:15:29.505Z,16.75
2022-12-18T21:20:32.197Z,18.35
2022-12-18T21:25:35.582Z,18.52
2022-12-18T21:30:38.593Z,17.60
2022-12-18T21:35:42.476Z,18.08
2022-12-18T21:40:45.784Z,17.58
2022-12-18T21:45:49.850Z,16.38
2022-12-18T21:50:52.339Z,16.63
2022-12-18T21:56:01.526Z,17.85
2022-12-18T22:01:04.196Z,17.40
2022-12-18T22:06:09.444Z,17.38
2022-12-18T22:11:12.653Z,17.20
2022-12-18T22:16:15.194Z,17.17
2022-12-18T22:21:50.556Z,17.52
2022-12-18T22:26:57.307Z,16.85
2022-12-18T22:32:05.753Z,17.50
2022-12-18T22:37:09.970Z,16.75
2022-12-18T22:42:12.909Z,17.30
2022-12-18T22:47:15.855Z,16.90
2022-12-18T22:52:18.688Z,18.05
2022-12-18T22:57:24.885Z,16.73
2022-12-18T23:02:27.929Z,17.73
2022-12-18T23:07:30.663Z,18.00
2022-12-18T23:12:33.457Z,16.88
2022-12-18T23:17:38.898Z,17.38
2022-12-18T23:22:41.935Z,16.83
2022-12-18T23:27:44.945Z,16.27
2022-12-18T23:32:47.669Z,17.27
2022-12-18T23:38:00.913Z,16.45
2022-12-18T23:43:03.746Z,17.40
2022-12-18T23:48:06.427Z,16.30
2022-12-18T23:53:09.469Z,17.30
2022-12-18T23:58:19.871Z,17.15
